createdAt,value
2023-04-14T00:00:24.437Z,18.18
2023-04-14T00:00:55.847Z,18.16
2023-04-14T00:01:27.246Z,18.16
2023-04-14T00:01:58.792Z,18.16
2023-04-14T00:02:30.332Z,18.16
2023-04-14T00:03:01.966Z,18.16
2023-04-14T00:03:33.851Z,18.16
2023-04-14T00:04:05.554Z,18.15
2023-04-14T00:04:37.180Z,18.16
2023-04-14T00:05:08.897Z,18.14
2023-04-14T00:05:40.350Z,18.14
2023-04-14T00:06:11.780Z,18.15
2023-04-14T00:06:43.179Z,18.15
2023-04-14T00:07:14.612Z,18.13
2023-04-14T00:07:46.026Z,18.12
2023-04-14T00:08:17.469Z,18.14
2023-04-14T00:08:48.878Z,18.12
2023-04-14T00:09:20.308Z,18.14
2023-04-14T00:09:51.747Z,18.14
2023-04-14T00:10:23.169Z,18.15
2023-04-14T00:10:54.573Z,18.13
2023-04-14T00:11:25.973Z,18.14
2023-04-14T00:11:57.474Z,18.13
2023-04-14T00:12:28.988Z,18.12
2023-04-14T00:13:00.392Z,18.13
2023-04-14T00:13:31.859Z,18.12
2023-04-14T00:14:03.263Z,18.12
2023-04-14T00:14:34.671Z,18.12
2023-04-14T00:15:06.069Z,18.12
2023-04-14T00:15:37.486Z,18.11
2023-04-14T00:16:08.937Z,18.13
2023-04-14T00:16:40.368Z,18.12
2023-04-14T00:17:11.859Z,18.12
2023-04-14T00:17:43.412Z,18.12
2023-04-14T00:18:14.844Z,18.12
2023-04-14T00:18:46.227Z,18.12
2023-04-14T00:19:17.623Z,18.10
2023-04-14T00:19:49.032Z,18.11
2023-04-14T00:20:20.437Z,18.11
2023-04-14T00:20:51.846Z,18.10
2023-04-14T00:21:23.309Z,18.08
2023-04-14T00:21:54.709Z,18.08
2023-04-14T00:22:26.126Z,18.09
2023-04-14T00:22:57.540Z,18.08
2023-04-14T00:23:28.936Z,18.09
2023-04-14T00:24:00.326Z,18.07
2023-04-14T00:24:31.741Z,18.08
2023-04-14T00:25:03.176Z,18.06
2023-04-14T00:25:34.568Z,18.06
2023-04-14T00:26:06.024Z,18.07
2023-04-14T00:26:37.440Z,18.06
2023-04-14T00:27:08.831Z,18.07
2023-04-14T00:27:40.239Z,18.08
2023-04-14T00:28:11.671Z,18.08
2023-04-14T00:28:43.066Z,18.07
2023-04-14T00:29:14.474Z,18.07
2023-04-14T00:29:45.899Z,18.06
2023-04-14T00:30:17.306Z,18.06
2023-04-14T00:30:48.787Z,18.05
2023-04-14T00:31:20.218Z,18.06
2023-04-14T00:31:51.670Z,18.06
2023-04-14T00:32:23.093Z,18.04
2023-04-14T00:32:54.564Z,18.03
2023-04-14T00:33:26.031Z,18.03
2023-04-14T00:33:57.444Z,18.03
2023-04-14T00:34:28.841Z,18.03
2023-04-14T00:35:00.261Z,18.02
2023-04-14T00:35:31.672Z,18.02
2023-04-14T00:36:03.073Z,18.03
2023-04-14T00:36:34.484Z,18.02
2023-04-14T00:37:05.877Z,18.03
2023-04-14T00:37:37.294Z,18.03
2023-04-14T00:38:08.685Z,18.03
2023-04-14T00:38:40.141Z,18.02
2023-04-14T00:39:11.534Z,18.01
2023-04-14T00:39:42.953Z,18.02
2023-04-14T00:40:14.367Z,18.03
2023-04-14T00:40:45.758Z,18.01
2023-04-14T00:41:17.157Z,18.01
2023-04-14T00:41:48.562Z,18.02
2023-04-14T00:42:19.990Z,18.00
2023-04-14T00:42:51.417Z,18.00
2023-04-14T00:43:22.840Z,18.00
2023-04-14T00:43:54.303Z,17.97
2023-04-14T00:44:25.715Z,17.96
2023-04-14T00:44:57.128Z,17.97
2023-04-14T00:45:28.534Z,17.98
2023-04-14T00:45:59.996Z,17.99
2023-04-14T00:46:31.419Z,17.98
2023-04-14T00:47:02.861Z,17.98
2023-04-14T00:47:34.290Z,17.98
2023-04-14T00:48:05.717Z,17.97
2023-04-14T00:48:37.138Z,17.98
2023-04-14T00:49:08.588Z,17.97
2023-04-14T00:49:39.984Z,17.98
2023-04-14T00:50:11.400Z,17.97
2023-04-14T00:50:42.813Z,17.92
2023-04-14T00:51:14.204Z,17.94
2023-04-14T00:51:45.598Z,17.93
2023-04-14T00:52:17.002Z,17.94
2023-04-14T00:52:48.413Z,17.92
2023-04-14T00:53:19.815Z,17.94
2023-04-14T00:53:51.203Z,17.92
2023-04-14T00:54:22.673Z,17.94
2023-04-14T00:54:54.098Z,17.95
2023-04-14T00:55:25.510Z,17.94
2023-04-14T00:55:56.937Z,17.94
2023-04-14T00:56:28.381Z,17.94
2023-04-14T00:56:59.796Z,17.92
2023-04-14T00:57:31.203Z,17.94
2023-04-14T00:58:02.586Z,17.94
2023-04-14T00:58:33.999Z,17.94
2023-04-14T00:59:05.415Z,17.92
2023-04-14T00:59:36.826Z,17.92
2023-04-14T01:00:08.243Z,17.94
2023-04-14T01:00:39.730Z,17.91
2023-04-14T01:01:11.164Z,17.89
2023-04-14T01:01:42.660Z,17.89
2023-04-14T01:02:14.251Z,17.91
2023-04-14T01:02:45.967Z,17.89
2023-04-14T01:03:17.581Z,17.89
2023-04-14T01:03:49.160Z,17.89
2023-04-14T01:04:20.857Z,17.89
2023-04-14T01:04:54.638Z,17.86
2023-04-14T01:05:26.458Z,17.87
2023-04-14T01:05:57.945Z,17.87
2023-04-14T01:06:29.366Z,17.88
2023-04-14T01:07:00.760Z,17.88
2023-04-14T01:07:32.151Z,17.88
2023-04-14T01:08:03.550Z,17.85
2023-04-14T01:08:34.959Z,17.86
2023-04-14T01:09:06.351Z,17.85
2023-04-14T01:09:37.772Z,17.86
2023-04-14T01:10:09.218Z,17.85
2023-04-14T01:10:40.616Z,17.84
2023-04-14T01:11:12.032Z,17.84
2023-04-14T01:11:43.445Z,17.85
2023-04-14T01:12:14.855Z,17.84
2023-04-14T01:12:46.263Z,17.85
2023-04-14T01:13:17.686Z,17.84
2023-04-14T01:13:49.102Z,17.84
2023-04-14T01:14:20.510Z,17.84
2023-04-14T01:14:51.894Z,17.84
2023-04-14T01:15:23.331Z,17.85
2023-04-14T01:15:54.753Z,17.82
2023-04-14T01:16:26.220Z,17.84
2023-04-14T01:16:57.665Z,17.84
2023-04-14T01:17:29.114Z,17.81
2023-04-14T01:18:00.589Z,17.83
2023-04-14T01:18:32.049Z,17.82
2023-04-14T01:19:03.443Z,17.83
2023-04-14T01:19:34.828Z,17.82
2023-04-14T01:20:06.245Z,17.80
2023-04-14T01:20:37.745Z,17.82
2023-04-14T01:21:09.169Z,17.82
2023-04-14T01:21:40.618Z,17.82
2023-04-14T01:22:12.020Z,17.81
2023-04-14T01:22:43.419Z,17.81
2023-04-14T01:23:14.834Z,17.81
2023-04-14T01:23:46.222Z,17.81
2023-04-14T01:24:17.639Z,17.81
2023-04-14T01:24:49.050Z,17.80
2023-04-14T01:25:20.446Z,17.79
2023-04-14T01:25:51.880Z,17.78
2023-04-14T01:26:23.272Z,17.78
2023-04-14T01:26:54.717Z,17.79
2023-04-14T01:27:26.131Z,17.78
2023-04-14T01:27:57.523Z,17.78
2023-04-14T01:28:28.953Z,17.78
2023-04-14T01:29:00.599Z,17.77
2023-04-14T01:29:32.123Z,17.79
2023-04-14T01:30:03.537Z,17.78
2023-04-14T01:30:34.932Z,17.79
2023-04-14T01:31:06.406Z,17.78
2023-04-14T01:31:37.917Z,17.77
2023-04-14T01:32:09.422Z,17.78
2023-04-14T01:32:40.883Z,17.77
2023-04-14T01:33:12.278Z,17.78
2023-04-14T01:33:43.685Z,17.77
2023-04-14T01:34:15.085Z,17.76
2023-04-14T01:34:46.513Z,17.76
2023-04-14T01:35:17.910Z,17.74
2023-04-14T01:35:49.334Z,17.74
2023-04-14T01:36:20.771Z,17.75
2023-04-14T01:36:52.184Z,17.76
2023-04-14T01:37:23.607Z,17.75
2023-04-14T01:37:55.018Z,17.75
2023-04-14T01:38:26.425Z,17.74
2023-04-14T01:38:57.909Z,17.74
2023-04-14T01:39:29.448Z,17.73
2023-04-14T01:40:00.853Z,17.74
2023-04-14T01:40:32.261Z,17.72
2023-04-14T01:41:03.677Z,17.73
2023-04-14T01:41:35.086Z,17.72
2023-04-14T01:42:06.517Z,17.70
2023-04-14T01:42:38.009Z,17.71
2023-04-14T01:43:09.425Z,17.72
2023-04-14T01:43:40.838Z,17.72
2023-04-14T01:44:12.239Z,17.71
2023-04-14T01:44:43.671Z,17.71
2023-04-14T01:45:15.073Z,17.71
2023-04-14T01:45:46.493Z,17.72
2023-04-14T01:46:18.076Z,17.72
2023-04-14T01:46:49.567Z,17.70
2023-04-14T01:47:20.979Z,17.70
2023-04-14T01:47:52.457Z,17.69
2023-04-14T01:48:23.871Z,17.68
2023-04-14T01:48:55.276Z,17.69
2023-04-14T01:49:26.760Z,17.70
2023-04-14T01:49:58.230Z,17.69
2023-04-14T01:50:29.639Z,17.68
2023-04-14T01:51:01.066Z,17.68
2023-04-14T01:51:32.473Z,17.67
2023-04-14T01:52:03.868Z,17.65
2023-04-14T01:52:35.267Z,17.66
2023-04-14T01:53:06.702Z,17.66
2023-04-14T01:53:38.116Z,17.66
2023-04-14T01:54:09.549Z,17.67
2023-04-14T01:54:40.939Z,17.67
2023-04-14T01:55:12.332Z,17.65
2023-04-14T01:55:43.739Z,17.65
2023-04-14T01:56:15.151Z,17.65
2023-04-14T01:56:46.573Z,17.65
2023-04-14T01:57:17.973Z,17.64
2023-04-14T01:57:49.443Z,17.62
2023-04-14T01:58:20.891Z,17.64
2023-04-14T01:58:52.486Z,17.62
2023-04-14T01:59:23.904Z,17.62
2023-04-14T01:59:55.312Z,17.62
2023-04-14T02:00:26.722Z,17.63
2023-04-14T02:00:58.132Z,17.63
2023-04-14T02:01:29.671Z,17.62
2023-04-14T02:02:01.156Z,17.61
2023-04-14T02:02:32.692Z,17.61
2023-04-14T02:03:04.246Z,17.61
2023-04-14T02:03:35.893Z,17.61
2023-04-14T02:04:07.507Z,17.62
2023-04-14T02:04:38.998Z,17.60
2023-04-14T02:05:10.409Z,17.60
2023-04-14T02:05:41.816Z,17.61
2023-04-14T02:06:13.218Z,17.59
2023-04-14T02:06:44.613Z,17.59
2023-04-14T02:07:16.015Z,17.60
2023-04-14T02:07:47.406Z,17.60
2023-04-14T02:08:18.836Z,17.61
2023-04-14T02:08:50.256Z,17.60
2023-04-14T02:09:21.662Z,17.60
2023-04-14T02:09:53.078Z,17.61
2023-04-14T02:10:24.482Z,17.59
2023-04-14T02:10:55.909Z,17.59
2023-04-14T02:11:27.341Z,17.58
2023-04-14T02:11:58.730Z,17.59
2023-04-14T02:12:30.146Z,17.59
2023-04-14T02:13:01.611Z,17.59
2023-04-14T02:13:33.036Z,17.58
2023-04-14T02:14:04.427Z,17.58
2023-04-14T02:14:35.829Z,17.58
2023-04-14T02:15:07.240Z,17.58
2023-04-14T02:15:38.653Z,17.58
2023-04-14T02:16:10.087Z,17.58
2023-04-14T02:16:41.717Z,17.58
2023-04-14T02:17:13.186Z,17.57
2023-04-14T02:17:44.629Z,17.58
2023-04-14T02:18:16.086Z,17.58
2023-04-14T02:18:47.532Z,17.58
2023-04-14T02:19:18.943Z,17.57
2023-04-14T02:19:50.354Z,17.56
2023-04-14T02:20:21.773Z,17.55
2023-04-14T02:20:53.169Z,17.57
2023-04-14T02:21:24.585Z,17.56
2023-04-14T02:21:56.013Z,17.56
2023-04-14T02:22:27.430Z,17.57
2023-04-14T02:22:58.833Z,17.56
2023-04-14T02:23:30.262Z,17.56
2023-04-14T02:24:01.741Z,17.57
2023-04-14T02:24:33.138Z,17.57
2023-04-14T02:25:04.558Z,17.58
2023-04-14T02:25:35.970Z,17.56
2023-04-14T02:26:07.385Z,17.55
2023-04-14T02:26:38.774Z,17.55
2023-04-14T02:27:10.154Z,17.53
2023-04-14T02:27:41.556Z,17.54
2023-04-14T02:28:12.961Z,17.54
2023-04-14T02:28:44.370Z,17.55
2023-04-14T02:29:15.852Z,17.55
2023-04-14T02:29:47.348Z,17.54
2023-04-14T02:30:18.747Z,17.55
2023-04-14T02:30:50.186Z,17.53
2023-04-14T02:31:21.713Z,17.54
2023-04-14T02:31:53.183Z,17.53
2023-04-14T02:32:24.612Z,17.53
2023-04-14T02:32:56.105Z,17.53
2023-04-14T02:33:27.534Z,17.53
2023-04-14T02:33:58.963Z,17.54
2023-04-14T02:34:30.418Z,17.53
2023-04-14T02:35:01.805Z,17.51
2023-04-14T02:35:33.220Z,17.52
2023-04-14T02:36:04.656Z,17.52
2023-04-14T02:36:36.066Z,17.52
2023-04-14T02:37:07.473Z,17.52
2023-04-14T02:37:38.893Z,17.51
2023-04-14T02:38:10.326Z,17.52
2023-04-14T02:38:41.838Z,17.52
2023-04-14T02:39:13.237Z,17.52
2023-04-14T02:39:44.658Z,17.49
2023-04-14T02:40:16.067Z,17.51
2023-04-14T02:40:47.454Z,17.51
2023-04-14T02:41:18.854Z,17.51
2023-04-14T02:41:50.260Z,17.49
2023-04-14T02:42:21.669Z,17.51
2023-04-14T02:42:53.089Z,17.51
2023-04-14T02:43:24.553Z,17.49
2023-04-14T02:43:55.962Z,17.49
2023-04-14T02:44:27.386Z,17.48
2023-04-14T02:44:58.834Z,17.48
2023-04-14T02:45:30.264Z,17.49
2023-04-14T02:46:01.726Z,17.49
2023-04-14T02:46:33.189Z,17.49
2023-04-14T02:47:04.681Z,17.49
2023-04-14T02:47:36.138Z,17.47
2023-04-14T02:48:07.555Z,17.49
2023-04-14T02:48:38.980Z,17.48
2023-04-14T02:49:11.735Z,17.49
2023-04-14T02:49:44.323Z,17.47
2023-04-14T02:50:15.753Z,17.47
2023-04-14T02:50:47.138Z,17.47
2023-04-14T02:51:18.603Z,17.46
2023-04-14T02:51:50.023Z,17.47
2023-04-14T02:52:21.431Z,17.45
2023-04-14T02:52:52.841Z,17.46
2023-04-14T02:53:24.250Z,17.47
2023-04-14T02:53:55.642Z,17.46
2023-04-14T02:54:27.045Z,17.46
2023-04-14T02:54:58.468Z,17.46
2023-04-14T02:55:29.874Z,17.46
2023-04-14T02:56:01.512Z,17.45
2023-04-14T02:56:32.938Z,17.45
2023-04-14T02:57:04.347Z,17.45
2023-04-14T02:57:35.740Z,17.45
2023-04-14T02:58:07.170Z,17.45
2023-04-14T02:58:38.574Z,17.45
2023-04-14T02:59:09.963Z,17.45
2023-04-14T02:59:41.349Z,17.44
2023-04-14T03:00:12.786Z,17.44
2023-04-14T03:00:44.223Z,17.43
2023-04-14T03:01:15.698Z,17.44
2023-04-14T03:01:47.235Z,17.42
2023-04-14T03:02:18.965Z,17.43
2023-04-14T03:02:50.503Z,17.43
2023-04-14T03:03:21.966Z,17.42
2023-04-14T03:03:53.447Z,17.43
2023-04-14T03:04:24.945Z,17.42
2023-04-14T03:04:56.389Z,17.41
2023-04-14T03:05:27.846Z,17.42
2023-04-14T03:05:59.232Z,17.41
2023-04-14T03:06:30.648Z,17.41
2023-04-14T03:07:02.093Z,17.43
2023-04-14T03:07:33.546Z,17.42
2023-04-14T03:08:04.966Z,17.43
2023-04-14T03:08:36.374Z,17.43
2023-04-14T03:09:07.776Z,17.43
2023-04-14T03:09:39.261Z,17.41
2023-04-14T03:10:10.703Z,17.42
2023-04-14T03:10:42.142Z,17.41
2023-04-14T03:11:13.544Z,17.40
2023-04-14T03:11:44.946Z,17.42
2023-04-14T03:12:16.349Z,17.41
2023-04-14T03:12:47.788Z,17.41
2023-04-14T03:13:19.215Z,17.40
2023-04-14T03:13:50.630Z,17.40
2023-04-14T03:14:22.038Z,17.40
2023-04-14T03:14:53.440Z,17.39
2023-04-14T03:15:24.859Z,17.39
2023-04-14T03:15:56.321Z,17.40
2023-04-14T03:16:27.871Z,17.38
2023-04-14T03:16:59.387Z,17.39
2023-04-14T03:17:30.809Z,17.39
2023-04-14T03:18:02.276Z,17.39
2023-04-14T03:18:33.680Z,17.38
2023-04-14T03:19:05.101Z,17.38
2023-04-14T03:19:36.545Z,17.39
2023-04-14T03:20:07.962Z,17.38
2023-04-14T03:20:39.350Z,17.38
2023-04-14T03:21:10.769Z,17.38
2023-04-14T03:21:42.182Z,17.37
2023-04-14T03:22:13.609Z,17.37
2023-04-14T03:22:45.023Z,17.38
2023-04-14T03:23:16.439Z,17.37
2023-04-14T03:23:47.853Z,17.37
2023-04-14T03:24:19.262Z,17.36
2023-04-14T03:24:50.701Z,17.36
2023-04-14T03:25:22.124Z,17.36
2023-04-14T03:25:53.512Z,17.34
2023-04-14T03:26:24.924Z,17.36
2023-04-14T03:26:56.317Z,17.35
2023-04-14T03:27:27.726Z,17.34
2023-04-14T03:27:59.135Z,17.34
2023-04-14T03:28:30.550Z,17.32
2023-04-14T03:29:02.289Z,17.33
2023-04-14T03:29:33.884Z,17.35
2023-04-14T03:30:05.305Z,17.34
2023-04-14T03:30:36.722Z,17.33
2023-04-14T03:31:08.185Z,17.33
2023-04-14T03:31:39.650Z,17.34
2023-04-14T03:32:11.097Z,17.33
2023-04-14T03:32:42.665Z,17.32
2023-04-14T03:33:14.083Z,17.33
2023-04-14T03:33:45.495Z,17.32
2023-04-14T03:34:16.890Z,17.33
2023-04-14T03:34:48.285Z,17.32
2023-04-14T03:35:19.686Z,17.32
2023-04-14T03:35:51.074Z,17.31
2023-04-14T03:36:22.505Z,17.32
2023-04-14T03:36:53.939Z,17.33
2023-04-14T03:37:25.340Z,17.33
2023-04-14T03:37:56.731Z,17.31
2023-04-14T03:38:28.180Z,17.32
2023-04-14T03:38:59.976Z,17.31
2023-04-14T03:39:31.540Z,17.31
2023-04-14T03:40:02.987Z,17.31
2023-04-14T03:40:34.378Z,17.30
2023-04-14T03:41:05.783Z,17.30
2023-04-14T03:41:37.207Z,17.31
2023-04-14T03:42:08.621Z,17.32
2023-04-14T03:42:40.405Z,17.32
2023-04-14T03:43:11.815Z,17.31
2023-04-14T03:43:43.214Z,17.30
2023-04-14T03:44:14.614Z,17.30
2023-04-14T03:44:46.021Z,17.29
2023-04-14T03:45:17.455Z,17.29
2023-04-14T03:45:48.877Z,17.29
2023-04-14T03:46:20.790Z,17.29
2023-04-14T03:46:52.690Z,17.28
2023-04-14T03:47:24.569Z,17.27
2023-04-14T03:47:56.558Z,17.29
2023-04-14T03:48:27.986Z,17.27
2023-04-14T03:48:59.601Z,17.27
2023-04-14T03:49:31.176Z,17.28
2023-04-14T03:50:02.611Z,17.28
2023-04-14T03:50:34.052Z,17.28
2023-04-14T03:51:05.462Z,17.28
2023-04-14T03:51:36.874Z,17.26
2023-04-14T03:52:08.331Z,17.26
2023-04-14T03:52:39.725Z,17.27
2023-04-14T03:53:11.122Z,17.26
2023-04-14T03:53:42.557Z,17.26
2023-04-14T03:54:13.970Z,17.26
2023-04-14T03:54:45.378Z,17.26
2023-04-14T03:55:16.769Z,17.26
2023-04-14T03:55:48.190Z,17.25
2023-04-14T03:56:19.609Z,17.27
2023-04-14T03:56:51.023Z,17.26
2023-04-14T03:57:22.452Z,17.25
2023-04-14T03:57:53.843Z,17.26
2023-04-14T03:58:25.255Z,17.25
2023-04-14T03:58:56.665Z,17.25
2023-04-14T03:59:28.118Z,17.25
2023-04-14T03:59:59.532Z,17.24
2023-04-14T04:00:30.975Z,17.25
2023-04-14T04:01:02.405Z,17.25
2023-04-14T04:01:33.837Z,17.23
2023-04-14T04:02:05.312Z,17.23
2023-04-14T04:02:36.894Z,17.25
2023-04-14T04:03:08.563Z,17.24
2023-04-14T04:03:40.325Z,17.23
2023-04-14T04:04:12.094Z,17.23
2023-04-14T04:04:43.599Z,17.23
2023-04-14T04:05:15.036Z,17.23
2023-04-14T04:05:46.440Z,17.22
2023-04-14T04:06:17.849Z,17.22
2023-04-14T04:06:49.259Z,17.21
2023-04-14T04:07:20.663Z,17.21
2023-04-14T04:07:52.090Z,17.22
2023-04-14T04:08:23.498Z,17.22
2023-04-14T04:08:54.906Z,17.20
2023-04-14T04:09:26.325Z,17.20
2023-04-14T04:09:57.737Z,17.22
2023-04-14T04:10:29.150Z,17.20
2023-04-14T04:11:00.590Z,17.20
2023-04-14T04:11:31.992Z,17.20
2023-04-14T04:12:03.401Z,17.21
2023-04-14T04:12:34.803Z,17.20
2023-04-14T04:13:06.249Z,17.20
2023-04-14T04:13:37.646Z,17.20
2023-04-14T04:14:09.039Z,17.20
2023-04-14T04:14:40.467Z,17.19
2023-04-14T04:15:11.902Z,17.20
2023-04-14T04:15:43.320Z,17.20
2023-04-14T04:16:14.768Z,17.19
2023-04-14T04:16:46.195Z,17.19
2023-04-14T04:17:17.667Z,17.19
2023-04-14T04:17:49.174Z,17.19
2023-04-14T04:18:20.685Z,17.18
2023-04-14T04:18:52.117Z,17.19
2023-04-14T04:19:23.530Z,17.17
2023-04-14T04:19:54.921Z,17.18
2023-04-14T04:20:26.318Z,17.18
2023-04-14T04:20:57.756Z,17.18
2023-04-14T04:21:29.165Z,17.17
2023-04-14T04:22:00.587Z,17.18
2023-04-14T04:22:32.032Z,17.17
2023-04-14T04:23:03.447Z,17.17
2023-04-14T04:23:34.897Z,17.17
2023-04-14T04:24:06.296Z,17.16
2023-04-14T04:24:37.827Z,17.17
2023-04-14T04:25:09.249Z,17.15
2023-04-14T04:25:40.653Z,17.16
2023-04-14T04:26:12.082Z,17.16
2023-04-14T04:26:43.492Z,17.15
2023-04-14T04:27:26.610Z,17.17
2023-04-14T04:27:59.290Z,17.16
2023-04-14T04:28:30.704Z,17.17
2023-04-14T04:29:02.423Z,17.16
2023-04-14T04:29:33.972Z,17.16
2023-04-14T04:30:05.405Z,17.16
2023-04-14T04:30:36.813Z,17.17
2023-04-14T04:31:08.217Z,17.16
2023-04-14T04:31:39.638Z,17.16
2023-04-14T04:32:11.155Z,17.17
2023-04-14T04:32:42.677Z,17.18
2023-04-14T04:33:14.193Z,17.18
2023-04-14T04:33:45.650Z,17.18
2023-04-14T04:34:17.040Z,17.18
2023-04-14T04:34:48.453Z,17.19
2023-04-14T04:35:19.860Z,17.20
2023-04-14T04:35:51.263Z,17.20
2023-04-14T04:36:22.707Z,17.19
2023-04-14T04:36:54.126Z,17.20
2023-04-14T04:37:25.523Z,17.20
2023-04-14T04:37:56.941Z,17.20
2023-04-14T04:38:28.348Z,17.22
2023-04-14T04:39:00.058Z,17.22
2023-04-14T04:39:31.619Z,17.23
2023-04-14T04:40:03.067Z,17.23
2023-04-14T04:40:34.465Z,17.23
2023-04-14T04:41:05.874Z,17.24
2023-04-14T04:41:37.310Z,17.24
2023-04-14T04:42:08.705Z,17.23
2023-04-14T04:42:40.124Z,17.24
2023-04-14T04:43:11.531Z,17.25
2023-04-14T04:43:42.985Z,17.25
2023-04-14T04:44:14.410Z,17.25
2023-04-14T04:44:45.812Z,17.25
2023-04-14T04:45:17.222Z,17.26
2023-04-14T04:45:48.627Z,17.26
2023-04-14T04:46:20.096Z,17.26
2023-04-14T04:46:51.547Z,17.27
2023-04-14T04:47:22.961Z,17.27
2023-04-14T04:47:54.463Z,17.27
2023-04-14T04:48:26.002Z,17.27
2023-04-14T04:48:57.436Z,17.28
2023-04-14T04:49:29.012Z,17.29
2023-04-14T04:50:00.424Z,17.28
2023-04-14T04:50:31.840Z,17.29
2023-04-14T04:51:03.234Z,17.28
2023-04-14T04:51:34.627Z,17.29
2023-04-14T04:52:06.064Z,17.29
2023-04-14T04:52:37.469Z,17.29
2023-04-14T04:53:08.865Z,17.30
2023-04-14T04:53:40.252Z,17.30
2023-04-14T04:54:11.683Z,17.31
2023-04-14T04:54:43.165Z,17.31
2023-04-14T04:55:14.577Z,17.32
2023-04-14T04:55:45.997Z,17.32
2023-04-14T04:56:17.395Z,17.33
2023-04-14T04:56:49.380Z,17.33
2023-04-14T04:57:20.769Z,17.33
2023-04-14T04:57:52.165Z,17.33
2023-04-14T04:58:23.569Z,17.33
2023-04-14T04:58:54.984Z,17.34
2023-04-14T04:59:26.401Z,17.34
2023-04-14T04:59:57.809Z,17.34
2023-04-14T05:00:29.545Z,17.35
2023-04-14T05:01:01.027Z,17.36
2023-04-14T05:01:32.519Z,17.36
2023-04-14T05:02:04.021Z,17.37
2023-04-14T05:02:35.572Z,17.36
2023-04-14T05:03:07.200Z,17.37
2023-04-14T05:03:38.684Z,17.36
2023-04-14T05:04:10.171Z,17.36
2023-04-14T05:04:41.605Z,17.37
2023-04-14T05:05:13.017Z,17.36
2023-04-14T05:05:44.417Z,17.36
2023-04-14T05:06:15.806Z,17.36
2023-04-14T05:06:47.219Z,17.37
2023-04-14T05:07:18.640Z,17.37
2023-04-14T05:07:50.055Z,17.37
2023-04-14T05:08:21.454Z,17.37
2023-04-14T05:08:52.866Z,17.38
2023-04-14T05:09:24.273Z,17.38
2023-04-14T05:09:55.678Z,17.37
2023-04-14T05:10:27.102Z,17.38
2023-04-14T05:10:58.501Z,17.37
2023-04-14T05:11:29.904Z,17.37
2023-04-14T05:12:01.395Z,17.37
2023-04-14T05:12:32.806Z,17.37
2023-04-14T05:13:04.217Z,17.37
2023-04-14T05:13:35.635Z,17.38
2023-04-14T05:14:07.048Z,17.38
2023-04-14T05:14:38.444Z,17.37
2023-04-14T05:15:09.850Z,17.37
2023-04-14T05:15:41.295Z,17.38
2023-04-14T05:16:12.833Z,17.38
2023-04-14T05:16:44.286Z,17.38
2023-04-14T05:17:15.717Z,17.39
2023-04-14T05:17:47.224Z,17.39
2023-04-14T05:18:18.635Z,17.38
2023-04-14T05:18:50.033Z,17.38
2023-04-14T05:19:21.443Z,17.37
2023-04-14T05:19:52.850Z,17.37
2023-04-14T05:20:24.238Z,17.39
2023-04-14T05:20:55.692Z,17.38
2023-04-14T05:21:27.084Z,17.39
2023-04-14T05:21:58.440Z,17.39
2023-04-14T05:22:29.854Z,17.38
2023-04-14T05:23:01.249Z,17.38
2023-04-14T05:23:32.661Z,17.39
2023-04-14T05:24:04.066Z,17.38
2023-04-14T05:24:35.567Z,17.38
2023-04-14T05:25:06.974Z,17.39
2023-04-14T05:25:38.382Z,17.39
2023-04-14T05:26:31.064Z,17.38
2023-04-14T05:27:13.671Z,17.39
2023-04-14T05:27:45.892Z,17.39
2023-04-14T05:28:17.293Z,17.39
2023-04-14T05:28:48.691Z,17.39
2023-04-14T05:29:20.093Z,17.39
2023-04-14T05:29:51.494Z,17.39
2023-04-14T05:30:22.905Z,17.38
2023-04-14T05:30:54.319Z,17.39
2023-04-14T05:31:25.838Z,17.39
2023-04-14T05:31:57.297Z,17.39
2023-04-14T05:32:29.324Z,17.39
2023-04-14T05:33:00.863Z,17.39
2023-04-14T05:33:32.330Z,17.40
2023-04-14T05:34:03.941Z,17.40
2023-04-14T05:34:35.412Z,17.39
2023-04-14T05:35:06.832Z,17.39
2023-04-14T05:35:38.251Z,17.40
2023-04-14T05:36:09.649Z,17.40
2023-04-14T05:36:41.106Z,17.39
2023-04-14T05:37:12.524Z,17.39
2023-04-14T05:37:43.938Z,17.40
2023-04-14T05:38:15.350Z,17.39
2023-04-14T05:38:46.739Z,17.40
2023-04-14T05:39:18.130Z,17.40
2023-04-14T05:39:49.556Z,17.39
2023-04-14T05:40:20.948Z,17.40
2023-04-14T05:40:52.354Z,17.39
2023-04-14T05:41:23.756Z,17.39
2023-04-14T05:41:55.198Z,17.39
2023-04-14T05:42:26.653Z,17.39
2023-04-14T05:42:58.068Z,17.40
2023-04-14T05:43:29.459Z,17.41
2023-04-14T05:44:01.065Z,17.40
2023-04-14T05:44:32.784Z,17.40
2023-04-14T05:45:04.251Z,17.41
2023-04-14T05:45:35.666Z,17.40
2023-04-14T05:46:07.130Z,17.40
2023-04-14T05:46:38.629Z,17.40
2023-04-14T05:47:10.153Z,17.40
2023-04-14T05:47:41.640Z,17.40
2023-04-14T05:48:13.070Z,17.40
2023-04-14T05:48:44.473Z,17.41
2023-04-14T05:49:15.886Z,17.41
2023-04-14T05:49:47.314Z,17.40
2023-04-14T05:50:18.727Z,17.41
2023-04-14T05:50:50.131Z,17.41
2023-04-14T05:51:21.515Z,17.41
2023-04-14T05:51:52.947Z,17.40
2023-04-14T05:52:24.394Z,17.40
2023-04-14T05:52:55.804Z,17.40
2023-04-14T05:53:27.294Z,17.42
2023-04-14T05:53:58.872Z,17.42
2023-04-14T05:54:30.450Z,17.41
2023-04-14T05:55:01.996Z,17.42
2023-04-14T05:55:33.389Z,17.41
2023-04-14T05:56:04.788Z,17.42
2023-04-14T05:56:36.181Z,17.41
2023-04-14T05:57:07.600Z,17.42
2023-04-14T05:57:39.036Z,17.42
2023-04-14T05:58:10.467Z,17.42
2023-04-14T05:58:41.885Z,17.42
2023-04-14T05:59:13.305Z,17.42
2023-04-14T05:59:44.709Z,17.42
2023-04-14T06:00:16.106Z,17.42
2023-04-14T06:00:47.523Z,17.41
2023-04-14T06:01:18.924Z,17.42
2023-04-14T06:01:50.410Z,17.42
2023-04-14T06:02:21.981Z,17.41
2023-04-14T06:02:53.692Z,17.42
2023-04-14T06:03:25.539Z,17.42
2023-04-14T06:03:57.308Z,17.41
2023-04-14T06:04:28.960Z,17.42
2023-04-14T06:05:00.598Z,17.43
2023-04-14T06:05:32.128Z,17.42
2023-04-14T06:06:03.691Z,17.42
2023-04-14T06:06:35.084Z,17.42
2023-04-14T06:07:06.480Z,17.43
2023-04-14T06:07:37.890Z,17.43
2023-04-14T06:08:09.281Z,17.42
2023-04-14T06:08:40.688Z,17.42
2023-04-14T06:09:12.100Z,17.41
2023-04-14T06:09:43.510Z,17.42
2023-04-14T06:10:15.005Z,17.43
2023-04-14T06:10:46.421Z,17.43
2023-04-14T06:11:17.854Z,17.42
2023-04-14T06:11:49.258Z,17.43
2023-04-14T06:12:20.681Z,17.42
2023-04-14T06:12:52.089Z,17.42
2023-04-14T06:13:23.508Z,17.42
2023-04-14T06:13:54.923Z,17.42
2023-04-14T06:14:26.343Z,17.42
2023-04-14T06:14:57.771Z,17.43
2023-04-14T06:15:29.182Z,17.42
2023-04-14T06:16:00.591Z,17.43
2023-04-14T06:16:32.071Z,17.42
2023-04-14T06:17:03.557Z,17.42
2023-04-14T06:17:35.037Z,17.42
2023-04-14T06:18:06.496Z,17.42
2023-04-14T06:18:37.936Z,17.43
2023-04-14T06:19:09.383Z,17.42
2023-04-14T06:19:40.785Z,17.42
2023-04-14T06:20:12.191Z,17.42
2023-04-14T06:20:43.602Z,17.42
2023-04-14T06:21:15.043Z,17.43
2023-04-14T06:21:46.443Z,17.42
2023-04-14T06:22:17.832Z,17.42
2023-04-14T06:22:49.246Z,17.42
2023-04-14T06:23:20.679Z,17.42
2023-04-14T06:23:52.109Z,17.43
2023-04-14T06:24:23.541Z,17.42
2023-04-14T06:24:54.954Z,17.43
2023-04-14T06:25:26.361Z,17.43
2023-04-14T06:25:57.757Z,17.42
2023-04-14T06:26:29.182Z,17.41
2023-04-14T06:27:00.604Z,17.43
2023-04-14T06:27:32.004Z,17.43
2023-04-14T06:28:03.433Z,17.42
2023-04-14T06:28:34.834Z,17.42
2023-04-14T06:29:06.240Z,17.43
2023-04-14T06:29:37.714Z,17.42
2023-04-14T06:30:09.183Z,17.43
2023-04-14T06:30:40.589Z,17.43
2023-04-14T06:31:12.011Z,17.43
2023-04-14T06:31:43.522Z,17.42
2023-04-14T06:32:15.110Z,17.43
2023-04-14T06:32:46.606Z,17.44
2023-04-14T06:33:18.050Z,17.43
2023-04-14T06:33:49.454Z,17.44
2023-04-14T06:34:20.862Z,17.43
2023-04-14T06:34:53.402Z,17.44
2023-04-14T06:35:32.793Z,17.45
2023-04-14T06:36:05.432Z,17.43
2023-04-14T06:36:36.846Z,17.44
2023-04-14T06:37:08.270Z,17.43
2023-04-14T06:37:39.677Z,17.44
2023-04-14T06:38:11.098Z,17.45
2023-04-14T06:38:42.519Z,17.43
2023-04-14T06:39:13.951Z,17.42
2023-04-14T06:39:45.384Z,17.42
2023-04-14T06:40:16.833Z,17.45
2023-04-14T06:40:48.265Z,17.45
2023-04-14T06:41:19.718Z,17.45
2023-04-14T06:41:51.124Z,17.45
2023-04-14T06:42:22.548Z,17.46
2023-04-14T06:42:53.957Z,17.44
2023-04-14T06:43:25.381Z,17.45
2023-04-14T06:43:56.790Z,17.46
2023-04-14T06:44:28.212Z,17.45
2023-04-14T06:44:59.631Z,17.46
2023-04-14T06:45:31.072Z,17.46
2023-04-14T06:46:02.589Z,17.47